createdAt,value
2023-01-04T00:02:04.139Z,74.63
2023-01-04T00:04:30.718Z,72.96
2023-01-04T00:06:57.387Z,74.61
2023-01-04T00:09:23.912Z,74.18
2023-01-04T00:11:50.466Z,74.02
2023-01-04T00:14:19.141Z,74.25
2023-01-04T00:16:45.789Z,73.72
2023-01-04T00:19:13.001Z,73.75
2023-01-04T00:21:39.574Z,74.80
2023-01-04T00:24:06.300Z,74.07
2023-01-04T00:26:36.181Z,73.87
2023-01-04T00:29:04.406Z,74.31
2023-01-04T00:31:31.197Z,74.48
2023-01-04T00:33:58.818Z,73.31
2023-01-04T00:36:25.659Z,74.34
2023-01-04T00:39:07.902Z,73.40
2023-01-04T00:44:26.366Z,71.82
2023-01-04T00:46:53.148Z,72.77
2023-01-04T00:49:19.912Z,73.66
2023-01-04T00:51:48.797Z,72.78
2023-01-04T00:54:15.903Z,72.76
2023-01-04T00:56:45.919Z,71.68
2023-01-04T00:59:15.633Z,72.52
2023-01-04T01:01:50.102Z,72.15
2023-01-04T01:04:18.732Z,70.58
2023-01-04T01:06:45.464Z,71.44
2023-01-04T01:09:12.085Z,71.22
2023-01-04T01:11:40.257Z,71.43
2023-01-04T01:14:10.024Z,71.60
2023-01-04T01:19:25.386Z,71.89
2023-01-04T01:21:51.898Z,72.28
2023-01-04T01:24:19.259Z,71.23
2023-01-04T01:26:45.930Z,72.01
2023-01-04T01:29:14.949Z,71.21
2023-01-04T01:31:41.859Z,72.50
2023-01-04T01:34:08.627Z,72.65
2023-01-04T01:36:35.443Z,71.75
2023-01-04T01:39:02.020Z,72.13
2023-01-04T01:41:29.637Z,72.31
2023-01-04T01:43:56.305Z,72.03
2023-01-04T01:46:32.030Z,71.41
2023-01-04T01:49:05.137Z,71.00
2023-01-04T01:51:32.451Z,70.55
2023-01-04T01:54:03.407Z,70.47
2023-01-04T01:56:32.588Z,71.80
2023-01-04T01:59:00.101Z,71.99
2023-01-04T02:01:27.426Z,73.07
2023-01-04T02:03:54.861Z,72.36
2023-01-04T02:06:24.251Z,71.59
2023-01-04T02:08:53.201Z,72.04
2023-01-04T02:11:19.738Z,71.90
2023-01-04T02:14:05.334Z,71.33
2023-01-04T02:16:50.736Z,71.52
2023-01-04T02:19:26.221Z,71.19
2023-01-04T02:22:11.093Z,70.85
2023-01-04T02:24:50.520Z,70.81
2023-01-04T02:27:46.485Z,70.97
2023-01-04T02:30:35.896Z,71.11
2023-01-04T02:33:11.719Z,70.08
2023-01-04T02:35:41.326Z,70.87
2023-01-04T02:38:12.906Z,71.21
2023-01-04T02:40:48.586Z,70.64
2023-01-04T02:43:50.112Z,71.15
2023-01-04T02:46:27.612Z,70.65
2023-01-04T02:49:13.008Z,70.91
2023-01-04T02:51:39.563Z,70.33
2023-01-04T02:54:11.771Z,69.94
2023-01-04T02:57:01.128Z,69.67
2023-01-04T02:59:51.570Z,69.23
2023-01-04T03:02:46.328Z,69.96
2023-01-04T03:05:43.072Z,70.60
2023-01-04T03:08:21.799Z,69.89
2023-01-04T03:10:48.375Z,69.54
2023-01-04T03:13:21.744Z,69.02
2023-01-04T03:15:51.637Z,68.63
2023-01-04T03:18:24.095Z,68.40
2023-01-04T03:20:53.009Z,68.92
2023-01-04T03:23:40.555Z,68.95
2023-01-04T03:26:30.060Z,68.93
2023-01-04T03:29:18.922Z,69.27
2023-01-04T03:32:06.882Z,68.79
2023-01-04T03:34:52.440Z,69.33
2023-01-04T03:37:23.564Z,68.96
2023-01-04T03:40:28.498Z,69.06
2023-01-04T03:43:16.796Z,69.63
2023-01-04T03:46:05.608Z,68.74
2023-01-04T03:48:37.447Z,68.53
2023-01-04T03:51:16.684Z,68.75
2023-01-04T03:53:50.735Z,68.78
2023-01-04T03:56:18.997Z,69.02
2023-01-04T03:58:46.439Z,68.69
2023-01-04T04:01:13.272Z,69.28
2023-01-04T04:03:58.560Z,68.80
2023-01-04T04:06:44.127Z,68.14
2023-01-04T04:09:12.055Z,68.00
2023-01-04T04:11:38.583Z,67.14
2023-01-04T04:14:05.191Z,66.17
2023-01-04T04:16:31.799Z,66.04
2023-01-04T04:19:01.866Z,65.19
2023-01-04T04:21:31.316Z,64.70
2023-01-04T04:23:57.899Z,64.41
2023-01-04T04:26:24.597Z,64.27
2023-01-04T04:28:51.986Z,64.93
2023-01-04T04:31:18.607Z,64.19
2023-01-04T04:33:45.144Z,65.12
2023-01-04T04:36:11.792Z,65.83
2023-01-04T04:38:38.523Z,66.24
2023-01-04T04:41:29.755Z,67.93
2023-01-04T04:43:57.387Z,68.56
2023-01-04T04:46:24.310Z,68.84
2023-01-04T04:48:57.330Z,69.96
2023-01-04T04:51:26.959Z,71.35
2023-01-04T04:53:53.597Z,72.23
2023-01-04T04:56:23.302Z,72.83
2023-01-04T04:58:50.092Z,74.11
2023-01-04T05:01:16.864Z,74.73
2023-01-04T05:03:43.634Z,74.73
2023-01-04T05:06:10.349Z,75.92
2023-01-04T05:08:37.162Z,75.60
2023-01-04T05:11:07.692Z,75.96
2023-01-04T05:13:34.538Z,76.14
2023-01-04T05:16:04.361Z,76.08
2023-01-04T05:18:31.300Z,76.47
2023-01-04T05:20:57.821Z,77.05
2023-01-04T05:23:24.620Z,77.61
2023-01-04T05:25:55.736Z,78.25
2023-01-04T05:28:22.760Z,78.18
2023-01-04T05:30:55.923Z,78.22
2023-01-04T05:33:24.288Z,77.79
2023-01-04T05:35:52.012Z,77.61
2023-01-04T05:38:19.273Z,78.19
2023-01-04T05:40:45.870Z,78.36
2023-01-04T05:43:13.990Z,78.83
2023-01-04T05:45:44.676Z,79.29
2023-01-04T05:48:11.355Z,79.32
2023-01-04T05:50:37.951Z,79.87
2023-01-04T05:53:05.589Z,79.78
2023-01-04T05:55:32.440Z,80.02
2023-01-04T05:57:59.004Z,80.51
2023-01-04T06:00:25.613Z,79.82
2023-01-04T06:02:52.765Z,79.41
2023-01-04T06:07:59.950Z,80.08
2023-01-04T06:10:26.531Z,79.96
2023-01-04T06:12:53.114Z,79.58
2023-01-04T06:15:19.794Z,79.40
2023-01-04T06:17:46.354Z,79.18
2023-01-04T06:20:12.947Z,79.87
2023-01-04T06:22:40.800Z,79.04
2023-01-04T06:25:08.352Z,78.32
2023-01-04T06:27:35.406Z,79.19
2023-01-04T06:30:02.114Z,79.24
2023-01-04T06:32:28.717Z,78.18
2023-01-04T06:34:55.256Z,78.19
2023-01-04T06:37:21.975Z,77.44
2023-01-04T06:39:48.516Z,78.00
2023-01-04T06:42:34.124Z,78.83
2023-01-04T06:45:00.704Z,77.49
2023-01-04T06:47:27.265Z,77.21
2023-01-04T06:49:53.952Z,76.71
2023-01-04T06:52:22.633Z,76.80
2023-01-04T06:54:49.188Z,77.34
2023-01-04T06:57:18.960Z,77.26
2023-01-04T06:59:45.571Z,77.14
2023-01-04T07:02:21.615Z,77.37
2023-01-04T07:04:48.302Z,77.94
2023-01-04T07:07:15.035Z,77.04
2023-01-04T07:09:41.621Z,76.71
2023-01-04T07:12:11.001Z,76.41
2023-01-04T07:14:37.579Z,75.95
2023-01-04T07:17:04.147Z,75.61
2023-01-04T07:19:30.822Z,75.71
2023-01-04T07:21:58.880Z,75.45
2023-01-04T07:24:30.016Z,75.00
2023-01-04T07:26:57.069Z,74.73
2023-01-04T07:29:25.370Z,75.35
2023-01-04T07:31:52.860Z,74.00
2023-01-04T07:34:22.552Z,74.15
2023-01-04T07:36:49.650Z,74.04
2023-01-04T07:39:16.683Z,74.36
2023-01-04T07:41:43.570Z,74.17
2023-01-04T07:44:10.974Z,73.84
2023-01-04T07:46:38.521Z,73.82
2023-01-04T07:49:11.689Z,74.68
2023-01-04T07:51:43.150Z,73.96
2023-01-04T07:54:12.523Z,73.91
2023-01-04T07:56:39.122Z,74.00
2023-01-04T07:59:09.542Z,73.34
2023-01-04T08:01:38.076Z,73.24
2023-01-04T08:04:06.160Z,73.33
2023-01-04T08:06:35.708Z,73.76
2023-01-04T08:09:03.470Z,73.10
2023-01-04T08:11:31.010Z,73.65
2023-01-04T08:13:57.633Z,73.41
2023-01-04T08:16:27.647Z,73.89
2023-01-04T08:18:55.515Z,73.67
2023-01-04T08:21:22.497Z,73.65
2023-01-04T08:23:49.124Z,73.06
2023-01-04T08:26:18.026Z,73.87
2023-01-04T08:28:44.864Z,73.61
2023-01-04T08:31:13.588Z,73.67
2023-01-04T08:33:41.086Z,72.97
2023-01-04T08:36:34.286Z,73.64
2023-01-04T08:39:06.114Z,73.64
2023-01-04T08:41:58.420Z,73.48
2023-01-04T08:44:21.503Z,74.42
2023-01-04T08:46:51.483Z,74.13
2023-01-04T08:49:18.380Z,73.91
2023-01-04T08:51:47.192Z,73.41
2023-01-04T08:54:14.011Z,73.74
2023-01-04T08:56:40.689Z,74.02
2023-01-04T08:59:07.682Z,73.81
2023-01-04T09:01:34.931Z,73.67
2023-01-04T09:04:01.687Z,73.69
2023-01-04T09:06:28.887Z,73.95
2023-01-04T09:08:56.346Z,73.90
2023-01-04T09:11:23.868Z,73.27
2023-01-04T09:13:54.451Z,73.23
2023-01-04T09:16:21.131Z,73.52
2023-01-04T09:18:47.684Z,73.46
2023-01-04T09:21:19.419Z,74.29
2023-01-04T09:23:46.547Z,74.63
2023-01-04T09:26:15.363Z,73.83
2023-01-04T09:28:42.166Z,74.29
2023-01-04T09:31:09.697Z,73.63
2023-01-04T09:34:12.011Z,73.47
2023-01-04T09:36:24.510Z,73.81
2023-01-04T09:38:52.289Z,73.65
2023-01-04T09:41:22.873Z,73.88
2023-01-04T09:43:53.671Z,74.44
2023-01-04T09:46:33.000Z,73.99
2023-01-04T09:49:23.133Z,75.46
2023-01-04T09:51:58.323Z,76.05
2023-01-04T09:57:03.506Z,78.14
2023-01-04T09:59:32.074Z,79.93
2023-01-04T10:02:07.167Z,80.98
2023-01-04T10:04:48.209Z,80.57
2023-01-04T10:07:23.001Z,80.51
2023-01-04T10:09:49.717Z,80.18
2023-01-04T10:12:28.767Z,80.32
2023-01-04T10:15:00.702Z,80.60
2023-01-04T10:23:18.258Z,80.26
2023-01-04T10:26:03.563Z,79.23
2023-01-04T10:28:32.199Z,79.01
2023-01-04T10:31:40.253Z,78.45
2023-01-04T10:34:18.588Z,78.61
2023-01-04T10:36:46.614Z,78.48
2023-01-04T10:39:15.850Z,76.75
2023-01-04T10:41:49.067Z,76.84
2023-01-04T10:44:24.906Z,76.69
2023-01-04T10:47:00.424Z,76.99
2023-01-04T10:49:39.275Z,76.83
2023-01-04T10:52:10.816Z,78.26
2023-01-04T10:54:37.374Z,76.97
2023-01-04T10:57:06.883Z,76.23
2023-01-04T10:59:52.557Z,76.44
2023-01-04T11:02:19.134Z,76.94
2023-01-04T11:05:00.578Z,75.35
2023-01-04T11:07:31.739Z,76.09
2023-01-04T11:10:10.713Z,75.33
2023-01-04T11:12:39.456Z,75.64
2023-01-04T11:15:06.273Z,76.11
2023-01-04T11:17:35.529Z,77.67
2023-01-04T11:20:02.233Z,78.31
2023-01-04T11:22:36.304Z,78.67
2023-01-04T11:27:56.326Z,80.55
2023-01-04T11:30:24.306Z,80.40
2023-01-04T11:33:03.607Z,80.52
2023-01-04T11:35:44.507Z,80.65
2023-01-04T11:38:11.189Z,81.46
2023-01-04T11:40:37.798Z,81.50
2023-01-04T11:43:22.650Z,81.43
2023-01-04T11:45:56.085Z,81.32
2023-01-04T11:48:32.520Z,81.65
2023-01-04T11:50:59.112Z,81.85
2023-01-04T11:53:25.626Z,81.52
2023-01-04T11:55:52.964Z,82.64
2023-01-04T11:58:19.794Z,83.02
2023-01-04T12:00:56.743Z,84.34
2023-01-04T12:03:27.845Z,84.28
2023-01-04T12:05:54.697Z,83.89
2023-01-04T12:08:28.272Z,83.85
2023-01-04T12:10:57.603Z,84.46
2023-01-04T12:13:24.235Z,84.71
2023-01-04T12:16:00.115Z,84.85
2023-01-04T12:18:29.102Z,85.38
2023-01-04T12:21:01.174Z,84.48
2023-01-04T12:23:29.301Z,85.51
2023-01-04T12:25:57.019Z,87.17
2023-01-04T12:28:37.644Z,86.80
2023-01-04T12:31:20.440Z,85.14
2023-01-04T12:33:59.895Z,86.90
2023-01-04T12:36:38.673Z,86.18
2023-01-04T12:39:05.387Z,85.90
2023-01-04T12:41:34.975Z,86.39
2023-01-04T12:44:02.450Z,85.42
2023-01-04T12:46:47.745Z,84.47
2023-01-04T12:49:26.752Z,84.16
2023-01-04T12:55:00.881Z,83.31
2023-01-04T12:57:37.748Z,83.49
2023-01-04T13:00:09.540Z,83.76
2023-01-04T13:02:44.023Z,83.66
2023-01-04T13:08:11.328Z,83.84
2023-01-04T13:10:50.002Z,83.94
2023-01-04T13:13:26.113Z,84.97
2023-01-04T13:16:11.241Z,84.87
2023-01-04T13:18:39.826Z,84.46
2023-01-04T13:21:26.712Z,84.54
2023-01-04T13:24:01.153Z,83.14
2023-01-04T13:26:46.076Z,83.76
2023-01-04T13:29:13.362Z,83.37
2023-01-04T13:31:53.340Z,82.75
2023-01-04T13:34:22.026Z,84.14
2023-01-04T13:36:55.886Z,83.19
2023-01-04T13:39:25.715Z,83.65
2023-01-04T13:41:54.291Z,85.07
2023-01-04T13:44:44.148Z,83.77
2023-01-04T13:47:14.921Z,83.89
2023-01-04T13:49:41.641Z,83.25
2023-01-04T13:52:52.237Z,83.81
2023-01-04T13:55:22.958Z,85.34
2023-01-04T13:57:54.145Z,85.35
2023-01-04T14:00:20.900Z,87.37
2023-01-04T14:02:47.823Z,86.12
2023-01-04T14:05:17.858Z,86.35
2023-01-04T14:07:45.590Z,85.63
2023-01-04T14:10:16.339Z,85.43
2023-01-04T14:12:44.513Z,84.92
2023-01-04T14:15:19.457Z,85.03
2023-01-04T14:17:52.158Z,85.51
2023-01-04T14:20:24.673Z,86.39
2023-01-04T14:22:52.708Z,85.49
2023-01-04T14:25:36.329Z,85.84
2023-01-04T14:28:22.233Z,87.43
2023-01-04T14:30:53.434Z,87.39
2023-01-04T14:33:23.296Z,86.98
2023-01-04T14:36:08.824Z,87.29
2023-01-04T14:38:36.955Z,87.29
2023-01-04T14:41:12.585Z,88.29
2023-01-04T14:43:46.927Z,88.14
2023-01-04T14:46:13.606Z,87.62
2023-01-04T14:48:43.208Z,88.28
2023-01-04T14:51:12.810Z,88.14
2023-01-04T14:53:39.677Z,88.45
2023-01-04T14:56:06.529Z,87.19
2023-01-04T14:58:33.055Z,88.28
2023-01-04T15:00:59.672Z,88.01
2023-01-04T15:03:26.280Z,87.41
2023-01-04T15:05:53.035Z,86.72
2023-01-04T15:08:19.817Z,86.27
2023-01-04T15:10:46.606Z,86.27
2023-01-04T15:13:14.535Z,86.90
2023-01-04T15:15:41.831Z,87.24
2023-01-04T15:18:08.603Z,88.43
2023-01-04T15:20:35.604Z,88.58
2023-01-04T15:23:02.229Z,88.44
2023-01-04T15:25:29.883Z,87.76
2023-01-04T15:27:56.527Z,87.44
2023-01-04T15:30:23.208Z,88.24
2023-01-04T15:32:49.907Z,88.87
2023-01-04T15:35:17.205Z,89.08
2023-01-04T15:37:45.271Z,88.38
2023-01-04T15:40:13.209Z,88.15
2023-01-04T15:43:00.459Z,88.32
2023-01-04T15:45:47.779Z,88.18
2023-01-04T15:51:22.645Z,87.53
2023-01-04T15:53:53.040Z,88.95
2023-01-04T15:56:20.457Z,89.05
2023-01-04T15:58:47.495Z,89.29
2023-01-04T16:01:17.134Z,87.99
2023-01-04T16:03:47.360Z,88.55
2023-01-04T16:06:17.551Z,89.64
2023-01-04T16:08:47.226Z,90.20
2023-01-04T16:11:18.532Z,88.94
2023-01-04T16:13:46.376Z,89.99
2023-01-04T16:16:13.183Z,89.46
2023-01-04T16:18:56.047Z,87.93
2023-01-04T16:21:25.202Z,87.38
2023-01-04T16:23:56.987Z,86.44
2023-01-04T16:26:26.911Z,85.30
2023-01-04T16:28:59.779Z,84.15
2023-01-04T16:31:26.544Z,83.49
2023-01-04T16:33:54.118Z,82.38
2023-01-04T16:36:25.037Z,81.45
2023-01-04T16:39:00.448Z,80.72
2023-01-04T16:41:29.414Z,79.32
2023-01-04T16:44:05.537Z,78.96
2023-01-04T16:46:33.624Z,78.34
2023-01-04T16:49:18.831Z,77.93
2023-01-04T16:51:49.636Z,77.50
2023-01-04T16:54:17.327Z,77.32
2023-01-04T16:56:44.661Z,76.13
2023-01-04T16:59:13.213Z,75.73
2023-01-04T17:01:48.858Z,76.37
2023-01-04T17:04:18.390Z,76.44
2023-01-04T17:06:45.785Z,75.96
2023-01-04T17:09:16.496Z,75.58
2023-01-04T17:12:36.732Z,75.03
2023-01-04T17:14:45.468Z,75.79
2023-01-04T17:17:12.076Z,75.45
2023-01-04T17:19:38.682Z,75.05
2023-01-04T17:22:05.306Z,75.44
2023-01-04T17:24:33.948Z,75.65
2023-01-04T17:27:00.520Z,75.55
2023-01-04T17:29:27.238Z,75.35
2023-01-04T17:31:56.431Z,75.73
2023-01-04T17:34:23.522Z,75.11
2023-01-04T17:36:50.545Z,74.91
2023-01-04T17:39:32.917Z,74.96
2023-01-04T17:41:59.557Z,74.39
2023-01-04T17:44:26.203Z,74.93
2023-01-04T17:46:56.203Z,74.21
2023-01-04T17:49:27.743Z,73.77
2023-01-04T17:52:02.194Z,73.84
2023-01-04T17:54:28.708Z,73.92
2023-01-04T17:56:55.315Z,74.39
2023-01-04T17:59:21.977Z,74.69
2023-01-04T18:01:48.826Z,74.80
2023-01-04T18:04:18.045Z,74.66
2023-01-04T18:06:44.684Z,74.62
2023-01-04T18:09:13.330Z,75.71
2023-01-04T18:11:53.295Z,75.85
2023-01-04T18:14:19.986Z,75.71
2023-01-04T18:16:59.293Z,76.05
2023-01-04T18:19:29.661Z,76.08
2023-01-04T18:21:56.739Z,75.55
2023-01-04T18:24:39.456Z,75.27
2023-01-04T18:27:26.724Z,75.02
2023-01-04T18:29:54.480Z,74.24
2023-01-04T18:32:25.060Z,74.36
2023-01-04T18:34:51.621Z,74.00
2023-01-04T18:37:18.923Z,72.67
2023-01-04T18:39:46.151Z,72.24
2023-01-04T18:42:12.685Z,72.13
2023-01-04T18:44:46.032Z,71.94
2023-01-04T18:47:15.544Z,71.76
2023-01-04T18:49:42.161Z,71.60
2023-01-04T18:52:08.750Z,71.08
2023-01-04T18:54:35.266Z,71.21
2023-01-04T18:57:01.996Z,70.46
2023-01-04T18:59:29.171Z,70.10
2023-01-04T19:02:01.487Z,69.93
2023-01-04T19:04:33.357Z,69.99
2023-01-04T19:07:00.679Z,69.61
2023-01-04T19:09:27.225Z,69.49
2023-01-04T19:11:53.885Z,69.43
2023-01-04T19:14:20.520Z,69.29
2023-01-04T19:16:47.274Z,70.12
2023-01-04T19:19:13.901Z,69.83
2023-01-04T19:21:50.490Z,70.24
2023-01-04T19:24:17.096Z,70.56
2023-01-04T19:26:43.612Z,70.36
2023-01-04T19:29:10.247Z,70.37
2023-01-04T19:31:36.797Z,70.62
2023-01-04T19:34:03.808Z,70.99
2023-01-04T19:36:30.318Z,70.84
2023-01-04T19:38:57.495Z,71.31
2023-01-04T19:41:31.218Z,71.07
2023-01-04T19:44:03.006Z,71.06
2023-01-04T19:46:30.450Z,70.36
2023-01-04T19:48:57.686Z,70.29
2023-01-04T19:51:26.898Z,70.73
2023-01-04T19:53:53.427Z,70.21
2023-01-04T19:56:19.975Z,70.87
2023-01-04T19:58:46.548Z,71.23
2023-01-04T20:01:13.934Z,71.52
2023-01-04T20:03:42.268Z,71.22
2023-01-04T20:06:09.332Z,71.46
2023-01-04T20:08:35.907Z,72.48
2023-01-04T20:11:02.865Z,71.12
2023-01-04T20:13:30.408Z,71.40
2023-01-04T20:15:57.053Z,71.05
2023-01-04T20:18:26.441Z,70.66
2023-01-04T20:20:53.551Z,70.41
2023-01-04T20:23:21.712Z,70.66
2023-01-04T20:25:53.540Z,70.01
2023-01-04T20:28:22.541Z,70.32
2023-01-04T20:30:49.148Z,69.90
2023-01-04T20:33:15.746Z,69.64
2023-01-04T20:35:47.070Z,69.64
2023-01-04T20:38:14.352Z,70.73
2023-01-04T20:40:41.146Z,70.45
2023-01-04T20:43:29.050Z,69.26
2023-01-04T20:45:55.729Z,70.03
2023-01-04T20:48:24.666Z,69.59
2023-01-04T20:50:51.780Z,70.13
2023-01-04T20:53:18.376Z,70.77
2023-01-04T20:55:44.974Z,74.68
2023-01-04T20:58:12.850Z,78.05
2023-01-04T21:00:40.148Z,78.44
2023-01-04T21:03:07.613Z,78.42
2023-01-04T21:05:35.887Z,78.24
2023-01-04T21:08:02.569Z,77.46
2023-01-04T21:10:29.264Z,77.79
2023-01-04T21:12:55.823Z,77.73
2023-01-04T21:15:22.444Z,78.18
2023-01-04T21:17:48.983Z,77.67
2023-01-04T21:20:15.642Z,77.25
2023-01-04T21:22:42.218Z,76.27
2023-01-04T21:25:09.104Z,76.13
2023-01-04T21:27:35.968Z,75.93
2023-01-04T21:30:02.574Z,75.64
2023-01-04T21:32:30.473Z,75.47
2023-01-04T21:34:57.062Z,75.14
2023-01-04T21:37:24.876Z,74.72
2023-01-04T21:39:53.040Z,75.16
2023-01-04T21:42:19.660Z,75.84
2023-01-04T21:44:46.288Z,79.70
2023-01-04T21:47:12.821Z,80.77
2023-01-04T21:49:43.748Z,80.99
2023-01-04T21:52:10.848Z,80.45
2023-01-04T21:54:37.827Z,80.60
2023-01-04T21:57:04.823Z,81.96
2023-01-04T21:59:31.569Z,82.67
2023-01-04T22:01:58.303Z,81.53
2023-01-04T22:04:25.019Z,80.66
2023-01-04T22:06:51.668Z,79.61
2023-01-04T22:09:18.252Z,79.91
2023-01-04T22:11:45.905Z,78.96
2023-01-04T22:14:12.455Z,80.42
2023-01-04T22:16:39.165Z,83.30
2023-01-04T22:19:05.756Z,83.56
2023-01-04T22:21:32.445Z,83.90
2023-01-04T22:23:59.187Z,82.46
2023-01-04T22:26:25.771Z,81.74
2023-01-04T22:28:52.368Z,81.64
2023-01-04T22:31:19.047Z,82.05
2023-01-04T22:33:45.638Z,81.84
2023-01-04T22:36:21.108Z,81.70
2023-01-04T22:38:49.597Z,80.61
2023-01-04T22:41:17.151Z,80.05
2023-01-04T22:43:44.386Z,80.98
2023-01-04T22:46:15.669Z,80.16
2023-01-04T22:48:42.290Z,78.74
2023-01-04T22:51:13.401Z,79.58
2023-01-04T22:53:40.410Z,79.37
2023-01-04T22:56:20.719Z,79.19
2023-01-04T22:58:54.757Z,80.59
2023-01-04T23:01:28.060Z,81.09
2023-01-04T23:03:55.779Z,80.63
2023-01-04T23:06:22.800Z,82.54
2023-01-04T23:08:54.752Z,84.21
2023-01-04T23:11:21.467Z,83.61
2023-01-04T23:13:48.254Z,85.02
2023-01-04T23:16:15.627Z,84.82
2023-01-04T23:18:42.660Z,85.06
2023-01-04T23:21:09.338Z,83.79
2023-01-04T23:23:36.256Z,83.54
2023-01-04T23:26:06.461Z,82.78
2023-01-04T23:28:35.693Z,81.84
2023-01-04T23:31:04.164Z,82.25
2023-01-04T23:33:35.703Z,83.65
2023-01-04T23:36:10.416Z,84.19
2023-01-04T23:38:38.269Z,83.45
2023-01-04T23:41:05.612Z,83.34
2023-01-04T23:43:32.272Z,83.67
2023-01-04T23:46:04.553Z,83.49
2023-01-04T23:48:31.152Z,82.72
2023-01-04T23:50:59.925Z,83.48
2023-01-04T23:53:26.588Z,83.61
2023-01-04T23:56:04.590Z,83.94
2023-01-04T23:58:31.526Z,83.88
